Karina — V2HS7 — position and weather

sailwx.info

Track history (hours):
 
Tides and Currents Weather Stations Pressure Air Temp Water Temp Dewpoint Dewpoint Depression Visibility Wind Speed Wind Dir Waves Ship Positions

Karina

Last reported at 2018-Jun-22 09:01 UTC. Time now 2018-Jun-22 09:16 UTC.
Position N 53°34' E 005°26'.

Length 103 m; draft 3.5 m.

Type: Cargo ship. MMSI: 304047000.

Date/timePositionNaut miles runAvg speedWind from/ knotsBaromVisibWave heightAir tempDewpointWater temp
2018-Jun-22 09:01N 53°34' E 005°26'5 9.0
2018-Jun-22 08:30N 53°33' E 005°19'4 8.7
2018-Jun-22 08:01N 53°32' E 005°12'4 8.4
2018-Jun-22 07:31N 53°30' E 005°05'4 7.8
2018-Jun-22 07:01N 53°29' E 004°59'4 7.8
2018-Jun-22 06:31N 53°27' E 004°53'4 8.0
2018-Jun-22 06:00N 53°25' E 004°47'4 7.2
2018-Jun-22 05:31N 53°23' E 004°42'3 5.4
2018-Jun-22 04:59N 53°21' E 004°41'3 5.5
2018-Jun-22 04:30N 53°18' E 004°39'4 5.3
2018-Jun-22 03:50N 53°15' E 004°37'2 5.0
2018-Jun-22 03:20N 53°13' E 004°35'2 5.4
2018-Jun-22 03:00N 53°11' E 004°33'3 5.9
2018-Jun-22 02:31N 53°08' E 004°31'3 6.0
2018-Jun-22 02:01N 53°06' E 004°28'3 6.6
2018-Jun-22 01:31N 53°03' E 004°25'3 7.0
2018-Jun-22 01:01N 53°00' E 004°22'3 6.6
2018-Jun-22 00:30N 52°57' E 004°20'4 7.4
2018-Jun-22 00:00N 52°54' E 004°18'4 8.3
2018-Jun-21 23:31N 52°50' E 004°15'13 8.8
2018-Jun-21 22:05N 52°40' E 004°03'1 9.4
2018-Jun-21 22:00N 52°39' E 004°02'5 9.8
2018-Jun-21 21:29N 52°35' E 003°58'5 9.5
2018-Jun-21 20:57N 52°30' E 003°54'4 9.3
2018-Jun-21 20:30N 52°26' E 003°54'5 9.1
2018-Jun-21 20:00N 52°21' E 003°53'4 9.0
2018-Jun-21 19:31N 52°17' E 003°52'4 8.1
2018-Jun-21 19:01N 52°13' E 003°53'4 8.1
2018-Jun-21 18:30N 52°09' E 003°55'4 7.8
2018-Jun-21 18:01N 52°05' E 003°56'4 7.4
2018-Jun-21 17:31N 52°02' E 003°58'1 2.1
2018-Jun-21 17:01N 52°01' E 003°57'4 7.3
2018-Jun-21 16:31N 51°60' E 004°02'510.7
2018-Jun-21 16:01N 51°57' E 004°10'611.5
2018-Jun-21 15:31N 51°54' E 004°17'510.0
2018-Jun-21 15:01N 51°54' E 004°25'1 1.8
2018-Jun-21 14:28N 51°54' E 004°27'0 0.0
2018-Jun-21 13:58N 51°54' E 004°27'0 0.0
2018-Jun-21 13:25N 51°54' E 004°27'0 0.0
2018-Jun-21 12:54N 51°54' E 004°27'0 0.0
2018-Jun-21 12:27N 51°54' E 004°27'0 0.0
2018-Jun-21 11:55N 51°54' E 004°27'0 0.0
2018-Jun-21 11:23N 51°54' E 004°27'0 0.0
2018-Jun-21 10:59N 51°54' E 004°27'0 0.0
2018-Jun-21 10:29N 51°54' E 004°27'0 0.0
2018-Jun-21 09:57N 51°54' E 004°27'0 0.0
2018-Jun-21 09:30N 51°54' E 004°27'0 0.0
2018-Jun-21 09:00N 51°54' E 004°27'0 0.0
2018-Jun-21 08:28N 51°54' E 004°27'0 0.0
2018-Jun-21 07:56N 51°54' E 004°27'0 0.0
2018-Jun-21 07:24N 51°54' E 004°27'0 0.0
2018-Jun-21 06:53N 51°54' E 004°27'0 0.0
2018-Jun-21 06:30N 51°54' E 004°27'0 0.0
2018-Jun-21 05:58N 51°54' E 004°27'0 0.0
2018-Jun-21 05:28N 51°54' E 004°27'0 0.0
2018-Jun-21 04:59N 51°54' E 004°27'0 0.0
2018-Jun-21 04:29N 51°54' E 004°27'0 0.0
2018-Jun-21 03:57N 51°54' E 004°27'0 0.0
2018-Jun-21 03:25N 51°54' E 004°27'0 0.0
2018-Jun-21 02:59N 51°54' E 004°27'0 0.0
2018-Jun-21 02:29N 51°54' E 004°27'0 0.0
2018-Jun-21 02:00N 51°54' E 004°27'0 0.0
2018-Jun-21 01:26N 51°54' E 004°27'0 0.0
2018-Jun-21 00:59N 51°54' E 004°27'0 0.0
2018-Jun-21 00:30N 51°54' E 004°27'0 0.0
2018-Jun-20 23:58N 51°54' E 004°27'0 0.0
2018-Jun-20 23:29N 51°54' E 004°27'0 0.0
2018-Jun-20 22:59N 51°54' E 004°27'0 0.0
2018-Jun-20 22:29N 51°54' E 004°27'0 0.0
2018-Jun-20 21:57N 51°54' E 004°27'0 0.0
2018-Jun-20 21:30N 51°54' E 004°27'0 0.0
2018-Jun-20 20:59N 51°54' E 004°27'0 0.0
2018-Jun-20 20:28N 51°54' E 004°27'0 0.0
2018-Jun-20 19:57N 51°54' E 004°27'0 0.0
2018-Jun-20 19:24N 51°54' E 004°27'0 0.0
2018-Jun-20 19:00N 51°54' E 004°27'0 0.0
2018-Jun-20 18:28N 51°54' E 004°27'0 0.0
2018-Jun-20 17:58N 51°54' E 004°27'0 0.0
2018-Jun-20 17:26N 51°54' E 004°27'0 0.0
2018-Jun-20 16:59N 51°54' E 004°27'0 0.0
2018-Jun-20 16:27N 51°54' E 004°27'0 0.0
2018-Jun-20 16:00N 51°54' E 004°27'1 1.6
2018-Jun-20 15:30N 51°54' E 004°26'4 8.9
2018-Jun-20 15:00N 51°54' E 004°18'4 8.4
2018-Jun-20 14:31N 51°56' E 004°13'4 8.2
2018-Jun-20 14:00N 51°58' E 004°07'4 8.3
2018-Jun-20 13:30N 51°60' E 004°01'9 9.1
2018-Jun-20 12:31N 52°02' E 003°47'510.6
2018-Jun-20 12:00N 52°07' E 003°46'510.1
2018-Jun-20 11:30N 52°12' E 003°46'5 9.6
2018-Jun-20 11:00N 52°17' E 003°47'5 9.3
2018-Jun-20 10:30N 52°22' E 003°48'5 9.1
2018-Jun-20 10:00N 52°26' E 003°50'5 8.9
2018-Jun-20 09:28N 52°31' E 003°51'4 8.8
2018-Jun-20 09:00N 52°35' E 003°53'4 8.6
2018-Jun-20 08:30N 52°39' E 003°54'10 8.4
2018-Jun-20 07:17N 52°49' E 003°57'54 9.6
2018-Jun-20 01:42N 53°32' E 004°52'4 9.6
2018-Jun-20 01:20N 53°33' E 004°57'11310.0
2018-Jun-19 14:07N 54°01' E 008°02'2 9.4
2018-Jun-19 13:53N 54°01' E 008°05'4 9.3
2018-Jun-19 13:30N 54°00' E 008°11'4 8.6
2018-Jun-19 13:00N 53°60' E 008°19'4 7.6
2018-Jun-19 12:30N 53°59' E 008°25'4 7.4
2018-Jun-19 12:00N 53°58' E 008°31'5 9.2
2018-Jun-19 11:30N 53°57' E 008°39'611.6
2018-Jun-19 11:00N 53°52' E 008°44'611.6
2018-Jun-19 10:31N 53°51' E 008°53'612.4
2018-Jun-19 10:01N 53°52' E 009°04'3 6.8
2018-Jun-19 09:30N 53°54' E 009°09'0 0.0
2018-Jun-19 09:00N 53°54' E 009°09'1 2.4
2018-Jun-19 08:30N 53°54' E 009°10'4 8.3
2018-Jun-19 08:00N 53°58' E 009°15'4 7.0
2018-Jun-19 07:30N 54°01' E 009°18'5 8.5
2018-Jun-19 06:53N 54°06' E 009°20'3 8.0
2018-Jun-19 06:30N 54°09' E 009°21'4 8.4
2018-Jun-19 06:00N 54°11' E 009°28'4 8.4
2018-Jun-19 05:30N 54°12' E 009°34'3 6.8
2018-Jun-19 05:00N 54°15' E 009°37'4 7.6
2018-Jun-19 04:30N 54°18' E 009°42'3 6.0
2018-Jun-19 04:00N 54°20' E 009°45'3 6.2
2018-Jun-19 03:29N 54°22' E 009°50'27 5.7
2018-Jun-18 22:49N 54°34' E 010°31'410.2
2018-Jun-18 22:23N 54°35' E 010°38'410.0
2018-Jun-18 22:00N 54°35' E 010°44'5 9.6
2018-Jun-18 21:30N 54°36' E 010°53'5 9.4
2018-Jun-18 21:00N 54°36' E 011°01'5 9.7
2018-Jun-18 20:30N 54°36' E 011°09'510.1
2018-Jun-18 20:00N 54°34' E 011°17'510.1
2018-Jun-18 19:30N 54°32' E 011°25'510.6
2018-Jun-18 19:00N 54°30' E 011°33'5 9.9
2018-Jun-18 18:29N 54°28' E 011°41'5 9.6
2018-Jun-18 18:00N 54°26' E 011°49'510.4
2018-Jun-18 17:30N 54°26' E 011°58'510.4
2018-Jun-18 17:00N 54°27' E 012°07'7910.0
2018-Jun-18 09:05N 55°06' E 014°06'110.5
2018-Jun-18 08:59N 55°07' E 014°07'610.5
2018-Jun-18 08:25N 55°12' E 014°14'510.4
2018-Jun-18 07:56N 55°16' E 014°19'810.8
2018-Jun-18 07:13N 55°22' E 014°28'1110.3
2018-Jun-18 06:07N 55°28' E 014°44'310.3
2018-Jun-18 05:51N 55°29' E 014°49'7210.3
2018-Jun-17 22:54N 55°50' E 016°50'3510.4
2018-Jun-17 19:30N 56°00' E 017°51'510.2
2018-Jun-17 19:00N 56°02' E 017°59'510.1
2018-Jun-17 18:30N 56°03' E 018°08'2310.0
2018-Jun-17 16:09N 56°10' E 018°48'210.3
2018-Jun-17 16:00N 56°11' E 018°51'  
2018-Jun-14 10:18N 58°02' E 019°37'511.2
2018-Jun-14 09:52N 58°07' E 019°34'6410.9
2018-Jun-14 04:01N 58°42' E 017°52'111.2
2018-Jun-14 03:53N 58°44' E 017°51'4 6.6
2018-Jun-14 03:18N 58°47' E 017°47'3 9.0
2018-Jun-14 02:59N 58°49' E 017°45'5 9.5
2018-Jun-14 02:30N 58°53' E 017°49'3 0.2
2018-Jun-13 06:14N 58°56' E 017°47'3 7.1
2018-Jun-13 05:51N 58°54' E 017°49'410.0
2018-Jun-13 05:30N 58°50' E 017°47'4 7.9
2018-Jun-13 05:00N 58°47' E 017°47'510.7
2018-Jun-13 04:30N 58°42' E 017°52'23 4.7
2018-Jun-12 23:37N 58°19' E 017°51'  
Track history (hours):
 
Tides and Currents Weather Stations Pressure Air Temp Water Temp Dewpoint Dewpoint Depression Visibility Wind Speed Wind Dir Waves Ship Positions

Karina

Last reported at 2018-Jun-22 09:01 UTC. Time now 2018-Jun-22 09:16 UTC.
Position N 53°34' E 005°26'.

Length 103 m; draft 3.5 m.

Type: Cargo ship. MMSI: 304047000.

Date/timePositionNaut miles runAvg speedWind from/ knotsBaromVisibWave heightAir tempDewpointWater temp
2018-Jun-22 09:01N 53°34' E 005°26'5 9.0
2018-Jun-22 08:30N 53°33' E 005°19'4 8.7
2018-Jun-22 08:01N 53°32' E 005°12'4 8.4
2018-Jun-22 07:31N 53°30' E 005°05'4 7.8
2018-Jun-22 07:01N 53°29' E 004°59'4 7.8
2018-Jun-22 06:31N 53°27' E 004°53'4 8.0
2018-Jun-22 06:00N 53°25' E 004°47'4 7.2
2018-Jun-22 05:31N 53°23' E 004°42'3 5.4
2018-Jun-22 04:59N 53°21' E 004°41'3 5.5
2018-Jun-22 04:30N 53°18' E 004°39'4 5.3
2018-Jun-22 03:50N 53°15' E 004°37'2 5.0
2018-Jun-22 03:20N 53°13' E 004°35'2 5.4
2018-Jun-22 03:00N 53°11' E 004°33'3 5.9
2018-Jun-22 02:31N 53°08' E 004°31'3 6.0
2018-Jun-22 02:01N 53°06' E 004°28'3 6.6
2018-Jun-22 01:31N 53°03' E 004°25'3 7.0
2018-Jun-22 01:01N 53°00' E 004°22'3 6.6
2018-Jun-22 00:30N 52°57' E 004°20'4 7.4
2018-Jun-22 00:00N 52°54' E 004°18'4 8.3
2018-Jun-21 23:31N 52°50' E 004°15'13 8.8
2018-Jun-21 22:05N 52°40' E 004°03'1 9.4
2018-Jun-21 22:00N 52°39' E 004°02'5 9.8
2018-Jun-21 21:29N 52°35' E 003°58'5 9.5
2018-Jun-21 20:57N 52°30' E 003°54'4 9.3
2018-Jun-21 20:30N 52°26' E 003°54'5 9.1
2018-Jun-21 20:00N 52°21' E 003°53'4 9.0
2018-Jun-21 19:31N 52°17' E 003°52'4 8.1
2018-Jun-21 19:01N 52°13' E 003°53'4 8.1
2018-Jun-21 18:30N 52°09' E 003°55'4 7.8
2018-Jun-21 18:01N 52°05' E 003°56'4 7.4
2018-Jun-21 17:31N 52°02' E 003°58'1 2.1
2018-Jun-21 17:01N 52°01' E 003°57'4 7.3
2018-Jun-21 16:31N 51°60' E 004°02'510.7
2018-Jun-21 16:01N 51°57' E 004°10'611.5
2018-Jun-21 15:31N 51°54' E 004°17'510.0
2018-Jun-21 15:01N 51°54' E 004°25'1 1.8
2018-Jun-21 14:28N 51°54' E 004°27'0 0.0
2018-Jun-21 13:58N 51°54' E 004°27'0 0.0
2018-Jun-21 13:25N 51°54' E 004°27'0 0.0
2018-Jun-21 12:54N 51°54' E 004°27'0 0.0
2018-Jun-21 12:27N 51°54' E 004°27'0 0.0
2018-Jun-21 11:55N 51°54' E 004°27'0 0.0
2018-Jun-21 11:23N 51°54' E 004°27'0 0.0
2018-Jun-21 10:59N 51°54' E 004°27'0 0.0
2018-Jun-21 10:29N 51°54' E 004°27'0 0.0
2018-Jun-21 09:57N 51°54' E 004°27'0 0.0
2018-Jun-21 09:30N 51°54' E 004°27'0 0.0
2018-Jun-21 09:00N 51°54' E 004°27'0 0.0
2018-Jun-21 08:28N 51°54' E 004°27'0 0.0
2018-Jun-21 07:56N 51°54' E 004°27'0 0.0
2018-Jun-21 07:24N 51°54' E 004°27'0 0.0
2018-Jun-21 06:53N 51°54' E 004°27'0 0.0
2018-Jun-21 06:30N 51°54' E 004°27'0 0.0
2018-Jun-21 05:58N 51°54' E 004°27'0 0.0
2018-Jun-21 05:28N 51°54' E 004°27'0 0.0
2018-Jun-21 04:59N 51°54' E 004°27'0 0.0
2018-Jun-21 04:29N 51°54' E 004°27'0 0.0
2018-Jun-21 03:57N 51°54' E 004°27'0 0.0
2018-Jun-21 03:25N 51°54' E 004°27'0 0.0
2018-Jun-21 02:59N 51°54' E 004°27'0 0.0
2018-Jun-21 02:29N 51°54' E 004°27'0 0.0
2018-Jun-21 02:00N 51°54' E 004°27'0 0.0
2018-Jun-21 01:26N 51°54' E 004°27'0 0.0
2018-Jun-21 00:59N 51°54' E 004°27'0 0.0
2018-Jun-21 00:30N 51°54' E 004°27'0 0.0
2018-Jun-20 23:58N 51°54' E 004°27'0 0.0
2018-Jun-20 23:29N 51°54' E 004°27'0 0.0
2018-Jun-20 22:59N 51°54' E 004°27'0 0.0
2018-Jun-20 22:29N 51°54' E 004°27'0 0.0
2018-Jun-20 21:57N 51°54' E 004°27'0 0.0
2018-Jun-20 21:30N 51°54' E 004°27'0 0.0
2018-Jun-20 20:59N 51°54' E 004°27'0 0.0
2018-Jun-20 20:28N 51°54' E 004°27'0 0.0
2018-Jun-20 19:57N 51°54' E 004°27'0 0.0
2018-Jun-20 19:24N 51°54' E 004°27'0 0.0
2018-Jun-20 19:00N 51°54' E 004°27'0 0.0
2018-Jun-20 18:28N 51°54' E 004°27'0 0.0
2018-Jun-20 17:58N 51°54' E 004°27'0 0.0
2018-Jun-20 17:26N 51°54' E 004°27'0 0.0
2018-Jun-20 16:59N 51°54' E 004°27'0 0.0
2018-Jun-20 16:27N 51°54' E 004°27'0 0.0
2018-Jun-20 16:00N 51°54' E 004°27'1 1.6
2018-Jun-20 15:30N 51°54' E 004°26'4 8.9
2018-Jun-20 15:00N 51°54' E 004°18'4 8.4
2018-Jun-20 14:31N 51°56' E 004°13'4 8.2
2018-Jun-20 14:00N 51°58' E 004°07'4 8.3
2018-Jun-20 13:30N 51°60' E 004°01'9 9.1
2018-Jun-20 12:31N 52°02' E 003°47'510.6
2018-Jun-20 12:00N 52°07' E 003°46'510.1
2018-Jun-20 11:30N 52°12' E 003°46'5 9.6
2018-Jun-20 11:00N 52°17' E 003°47'5 9.3
2018-Jun-20 10:30N 52°22' E 003°48'5 9.1
2018-Jun-20 10:00N 52°26' E 003°50'5 8.9
2018-Jun-20 09:28N 52°31' E 003°51'4 8.8
2018-Jun-20 09:00N 52°35' E 003°53'4 8.6
2018-Jun-20 08:30N 52°39' E 003°54'10 8.4
2018-Jun-20 07:17N 52°49' E 003°57'54 9.6
2018-Jun-20 01:42N 53°32' E 004°52'4 9.6
2018-Jun-20 01:20N 53°33' E 004°57'11310.0
2018-Jun-19 14:07N 54°01' E 008°02'2 9.4
2018-Jun-19 13:53N 54°01' E 008°05'4 9.3
2018-Jun-19 13:30N 54°00' E 008°11'4 8.6
2018-Jun-19 13:00N 53°60' E 008°19'4 7.6
2018-Jun-19 12:30N 53°59' E 008°25'4 7.4
2018-Jun-19 12:00N 53°58' E 008°31'5 9.2
2018-Jun-19 11:30N 53°57' E 008°39'611.6
2018-Jun-19 11:00N 53°52' E 008°44'611.6
2018-Jun-19 10:31N 53°51' E 008°53'612.4
2018-Jun-19 10:01N 53°52' E 009°04'3 6.8
2018-Jun-19 09:30N 53°54' E 009°09'0 0.0
2018-Jun-19 09:00N 53°54' E 009°09'1 2.4
2018-Jun-19 08:30N 53°54' E 009°10'4 8.3
2018-Jun-19 08:00N 53°58' E 009°15'4 7.0
2018-Jun-19 07:30N 54°01' E 009°18'5 8.5
2018-Jun-19 06:53N 54°06' E 009°20'3 8.0
2018-Jun-19 06:30N 54°09' E 009°21'4 8.4
2018-Jun-19 06:00N 54°11' E 009°28'4 8.4
2018-Jun-19 05:30N 54°12' E 009°34'3 6.8
2018-Jun-19 05:00N 54°15' E 009°37'4 7.6
2018-Jun-19 04:30N 54°18' E 009°42'3 6.0
2018-Jun-19 04:00N 54°20' E 009°45'3 6.2
2018-Jun-19 03:29N 54°22' E 009°50'27 5.7
2018-Jun-18 22:49N 54°34' E 010°31'410.2
2018-Jun-18 22:23N 54°35' E 010°38'410.0
2018-Jun-18 22:00N 54°35' E 010°44'5 9.6
2018-Jun-18 21:30N 54°36' E 010°53'5 9.4
2018-Jun-18 21:00N 54°36' E 011°01'5 9.7
2018-Jun-18 20:30N 54°36' E 011°09'510.1
2018-Jun-18 20:00N 54°34' E 011°17'510.1
2018-Jun-18 19:30N 54°32' E 011°25'510.6
2018-Jun-18 19:00N 54°30' E 011°33'5 9.9
2018-Jun-18 18:29N 54°28' E 011°41'5 9.6
2018-Jun-18 18:00N 54°26' E 011°49'510.4
2018-Jun-18 17:30N 54°26' E 011°58'510.4
2018-Jun-18 17:00N 54°27' E 012°07'7910.0
2018-Jun-18 09:05N 55°06' E 014°06'110.5
2018-Jun-18 08:59N 55°07' E 014°07'610.5
2018-Jun-18 08:25N 55°12' E 014°14'510.4
2018-Jun-18 07:56N 55°16' E 014°19'810.8
2018-Jun-18 07:13N 55°22' E 014°28'1110.3
2018-Jun-18 06:07N 55°28' E 014°44'310.3
2018-Jun-18 05:51N 55°29' E 014°49'7210.3
2018-Jun-17 22:54N 55°50' E 016°50'3510.4
2018-Jun-17 19:30N 56°00' E 017°51'510.2
2018-Jun-17 19:00N 56°02' E 017°59'510.1
2018-Jun-17 18:30N 56°03' E 018°08'2310.0
2018-Jun-17 16:09N 56°10' E 018°48'210.3
2018-Jun-17 16:00N 56°11' E 018°51'  
2018-Jun-14 10:18N 58°02' E 019°37'511.2
2018-Jun-14 09:52N 58°07' E 019°34'6410.9
2018-Jun-14 04:01N 58°42' E 017°52'111.2
2018-Jun-14 03:53N 58°44' E 017°51'4 6.6
2018-Jun-14 03:18N 58°47' E 017°47'3 9.0
2018-Jun-14 02:59N 58°49' E 017°45'5 9.5
2018-Jun-14 02:30N 58°53' E 017°49'3 0.2
2018-Jun-13 06:14N 58°56' E 017°47'3 7.1
2018-Jun-13 05:51N 58°54' E 017°49'410.0
2018-Jun-13 05:30N 58°50' E 017°47'4 7.9
2018-Jun-13 05:00N 58°47' E 017°47'510.7
2018-Jun-13 04:30N 58°42' E 017°52'23 4.7
2018-Jun-12 23:37N 58°19' E 017°51'  

Dump ship's entire track history